createdAt,value
2023-02-15T00:00:11.890Z,163.50
2023-02-15T00:02:40.117Z,144.60
2023-02-15T00:05:09.363Z,160.13
2023-02-15T00:07:38.000Z,143.13
2023-02-15T00:10:06.116Z,150.70
2023-02-15T00:12:33.730Z,161.98
2023-02-15T00:15:01.546Z,159.02
2023-02-15T00:17:31.227Z,137.57
2023-02-15T00:19:59.267Z,147.75
2023-02-15T00:22:27.436Z,142.70
2023-02-15T00:24:57.587Z,125.95
2023-02-15T00:27:27.075Z,124.40
2023-02-15T00:29:54.676Z,113.03
2023-02-15T00:32:22.600Z,115.97
2023-02-15T00:34:49.526Z,108.93
2023-02-15T00:37:17.183Z,105.32
2023-02-15T00:39:45.435Z,99.15
2023-02-15T00:42:12.973Z,92.82
2023-02-15T00:44:40.313Z,91.90
2023-02-15T00:47:07.215Z,87.07
2023-02-15T00:49:35.022Z,76.03
2023-02-15T00:52:03.492Z,71.80
2023-02-15T00:54:32.081Z,79.70
2023-02-15T00:57:01.665Z,82.95
2023-02-15T00:59:29.304Z,69.15
2023-02-15T01:01:57.892Z,79.07
2023-02-15T01:04:26.909Z,77.65
2023-02-15T01:06:54.650Z,81.90
2023-02-15T01:09:24.456Z,64.97
2023-02-15T01:11:51.779Z,76.72
2023-02-15T01:14:20.488Z,77.00
2023-02-15T01:16:49.246Z,72.03
2023-02-15T01:19:18.665Z,69.20
2023-02-15T01:21:47.696Z,78.55
2023-02-15T01:24:16.802Z,71.15
2023-02-15T01:26:44.022Z,65.65
2023-02-15T01:29:12.027Z,77.05
2023-02-15T01:31:40.656Z,66.10
2023-02-15T01:34:08.297Z,71.53
2023-02-15T01:36:37.889Z,76.10
2023-02-15T01:39:05.974Z,68.85
2023-02-15T01:41:34.254Z,69.20
2023-02-15T01:44:05.272Z,60.67
2023-02-15T01:46:38.000Z,73.88
2023-02-15T01:49:16.918Z,66.20
2023-02-15T01:51:48.219Z,73.78
2023-02-15T01:54:19.171Z,68.00
2023-02-15T01:56:49.492Z,71.85
2023-02-15T01:59:25.632Z,72.60
2023-02-15T02:01:58.001Z,75.43
2023-02-15T02:04:36.730Z,75.80
2023-02-15T02:07:10.940Z,83.38
2023-02-15T02:09:39.059Z,78.13
2023-02-15T02:12:09.060Z,84.05
2023-02-15T02:14:38.106Z,71.00
2023-02-15T02:17:17.593Z,78.53
2023-02-15T02:20:23.055Z,77.68
2023-02-15T02:23:05.875Z,76.63
2023-02-15T02:25:53.651Z,79.50
2023-02-15T02:28:56.965Z,76.95
2023-02-15T02:31:54.599Z,74.78
2023-02-15T02:34:33.199Z,71.45
2023-02-15T02:37:13.443Z,86.43
2023-02-15T02:39:58.335Z,71.90
2023-02-15T02:42:45.464Z,73.57
2023-02-15T02:45:17.560Z,80.05
2023-02-15T02:47:51.742Z,70.03
2023-02-15T02:50:26.297Z,89.22
2023-02-15T02:52:57.436Z,77.20
2023-02-15T02:55:40.371Z,80.55
2023-02-15T02:58:13.352Z,73.38
2023-02-15T03:01:03.909Z,81.18
2023-02-15T03:03:43.865Z,90.22
2023-02-15T03:06:19.510Z,81.20
2023-02-15T03:08:56.717Z,75.10
2023-02-15T03:11:25.371Z,85.72
2023-02-15T03:13:54.097Z,81.80
2023-02-15T03:16:31.060Z,84.60
2023-02-15T03:19:16.437Z,82.38
2023-02-15T03:21:59.518Z,74.90
2023-02-15T03:24:35.415Z,64.22
2023-02-15T03:27:07.660Z,79.05
2023-02-15T03:29:37.863Z,71.93
2023-02-15T03:32:09.027Z,73.38
2023-02-15T03:34:37.970Z,91.85
2023-02-15T03:37:16.638Z,78.00
2023-02-15T03:39:55.088Z,79.47
2023-02-15T03:42:28.749Z,89.95
2023-02-15T03:45:03.510Z,81.60
2023-02-15T03:47:35.600Z,74.10
2023-02-15T03:50:31.488Z,79.32
2023-02-15T03:53:03.127Z,98.80
2023-02-15T03:55:31.432Z,86.88
2023-02-15T03:58:15.507Z,79.93
2023-02-15T04:01:06.604Z,79.85
2023-02-15T04:03:40.772Z,91.25
2023-02-15T04:06:08.046Z,74.78
2023-02-15T04:08:50.756Z,81.53
2023-02-15T04:11:18.083Z,89.15
2023-02-15T04:13:47.310Z,83.85
2023-02-15T04:16:14.524Z,84.50
2023-02-15T04:18:59.957Z,96.75
2023-02-15T04:21:47.274Z,91.53
2023-02-15T04:24:31.833Z,99.38
2023-02-15T04:27:00.695Z,95.68
2023-02-15T04:29:30.888Z,98.63
2023-02-15T04:32:03.179Z,92.18
2023-02-15T04:34:32.208Z,83.90
2023-02-15T04:36:59.779Z,84.80
2023-02-15T04:39:28.267Z,95.72
2023-02-15T04:41:57.049Z,91.15
2023-02-15T04:44:26.197Z,92.00
2023-02-15T04:46:55.988Z,94.82
2023-02-15T04:49:25.606Z,97.97
2023-02-15T04:51:53.527Z,113.95
2023-02-15T04:54:21.166Z,92.65
2023-02-15T04:56:50.413Z,104.18
2023-02-15T04:59:17.684Z,100.43
2023-02-15T05:01:46.860Z,99.57
2023-02-15T05:04:14.919Z,95.82
2023-02-15T05:06:43.378Z,97.95
2023-02-15T05:09:12.437Z,107.65
2023-02-15T05:11:41.024Z,109.35
2023-02-15T05:14:08.831Z,82.97
2023-02-15T05:16:36.925Z,107.00
2023-02-15T05:19:04.265Z,100.82
2023-02-15T05:21:32.383Z,99.38
2023-02-15T05:23:59.929Z,100.00
2023-02-15T05:26:42.806Z,92.63
2023-02-15T05:29:10.642Z,94.45
2023-02-15T05:31:39.604Z,98.63
2023-02-15T05:34:07.262Z,85.10
2023-02-15T05:36:35.642Z,90.57
2023-02-15T05:39:05.129Z,108.22
2023-02-15T05:41:32.152Z,91.00
2023-02-15T05:43:59.981Z,93.72
2023-02-15T05:46:28.705Z,107.97
2023-02-15T05:48:57.581Z,106.30
2023-02-15T05:51:25.462Z,101.93
2023-02-15T05:53:53.571Z,95.95
2023-02-15T05:56:20.366Z,100.22
2023-02-15T05:58:48.763Z,108.95
2023-02-15T06:01:24.803Z,95.72
2023-02-15T06:03:54.129Z,92.00
2023-02-15T06:06:24.440Z,90.63
2023-02-15T06:08:56.953Z,90.85
2023-02-15T06:11:26.250Z,99.90
2023-02-15T06:13:54.348Z,108.50
2023-02-15T06:16:22.736Z,84.18
2023-02-15T06:18:51.840Z,91.03
2023-02-15T06:21:21.291Z,94.65
2023-02-15T06:23:51.075Z,115.28
2023-02-15T06:26:18.535Z,104.35
2023-02-15T06:28:46.799Z,101.25
2023-02-15T06:31:16.394Z,111.20
2023-02-15T06:33:44.201Z,98.18
2023-02-15T06:36:11.054Z,108.00
2023-02-15T06:38:40.196Z,114.47
2023-02-15T06:41:07.212Z,97.13
2023-02-15T06:43:36.796Z,99.72
2023-02-15T06:46:05.997Z,100.88
2023-02-15T06:48:34.210Z,94.50
2023-02-15T06:51:02.389Z,97.70
2023-02-15T06:53:30.865Z,92.00
2023-02-15T06:56:08.252Z,92.30
2023-02-15T06:58:38.135Z,106.60
2023-02-15T07:01:06.357Z,103.35
2023-02-15T07:03:36.906Z,92.35
2023-02-15T07:06:10.179Z,91.28
2023-02-15T07:08:40.817Z,95.22
2023-02-15T07:11:24.539Z,101.25
2023-02-15T07:13:54.252Z,104.70
2023-02-15T07:16:23.653Z,81.22
2023-02-15T07:18:52.554Z,84.28
2023-02-15T07:21:22.216Z,93.97
2023-02-15T07:23:51.305Z,80.75
2023-02-15T07:26:18.837Z,95.40
2023-02-15T07:28:48.396Z,85.00
2023-02-15T07:31:16.913Z,86.57
2023-02-15T07:33:45.447Z,86.55
2023-02-15T07:36:16.069Z,91.82
2023-02-15T07:38:45.686Z,103.75
2023-02-15T07:41:17.519Z,92.07
2023-02-15T07:43:47.826Z,107.78
2023-02-15T07:46:18.385Z,98.07
2023-02-15T07:48:47.423Z,99.15
2023-02-15T07:51:17.606Z,81.85
2023-02-15T07:53:47.102Z,90.72
2023-02-15T07:56:18.597Z,78.22
2023-02-15T07:58:56.532Z,83.57
2023-02-15T08:01:31.392Z,90.20
2023-02-15T08:04:01.272Z,84.57
2023-02-15T08:06:33.852Z,91.97
2023-02-15T08:09:03.887Z,76.00
2023-02-15T08:11:36.109Z,74.93
2023-02-15T08:14:12.522Z,96.68
2023-02-15T08:16:46.073Z,97.43
2023-02-15T08:19:19.283Z,90.90
2023-02-15T08:21:51.286Z,105.57
2023-02-15T08:24:23.270Z,101.13
2023-02-15T08:26:52.992Z,99.40
2023-02-15T08:29:25.521Z,117.88
2023-02-15T08:31:57.826Z,107.30
2023-02-15T08:34:26.963Z,118.45
2023-02-15T08:36:56.707Z,114.95
2023-02-15T08:39:25.222Z,133.02
2023-02-15T08:41:55.605Z,121.63
2023-02-15T08:44:24.824Z,122.75
2023-02-15T08:46:53.348Z,104.95
2023-02-15T08:49:23.706Z,109.22
2023-02-15T08:51:52.035Z,114.07
2023-02-15T08:54:23.888Z,144.43
2023-02-15T08:56:53.132Z,126.53
2023-02-15T08:59:24.004Z,125.65
2023-02-15T09:01:55.935Z,128.30
2023-02-15T09:04:24.711Z,122.50
2023-02-15T09:06:55.746Z,137.45
2023-02-15T09:09:24.382Z,143.25
2023-02-15T09:11:59.068Z,132.75
2023-02-15T09:14:29.488Z,117.00
2023-02-15T09:16:57.701Z,116.70
2023-02-15T09:19:27.134Z,135.15
2023-02-15T09:21:56.513Z,116.13
2023-02-15T09:24:25.550Z,126.97
2023-02-15T09:26:55.485Z,135.35
2023-02-15T09:29:24.847Z,123.18
2023-02-15T09:31:54.773Z,114.15
2023-02-15T09:34:25.376Z,118.88
2023-02-15T09:36:54.594Z,118.20
2023-02-15T09:39:25.986Z,113.72
2023-02-15T09:42:15.303Z,104.15
2023-02-15T09:44:59.756Z,111.88
2023-02-15T09:47:39.904Z,117.20
2023-02-15T09:50:18.741Z,109.18
2023-02-15T09:53:08.401Z,111.65
2023-02-15T09:55:52.783Z,112.15
2023-02-15T09:58:36.916Z,124.93
2023-02-15T10:01:28.385Z,113.43
2023-02-15T10:04:32.520Z,123.93
2023-02-15T10:07:35.933Z,126.95
2023-02-15T10:10:24.531Z,127.68
2023-02-15T10:13:23.623Z,134.25
2023-02-15T10:16:04.452Z,119.45
2023-02-15T10:18:47.832Z,135.90
2023-02-15T10:21:40.648Z,151.40
2023-02-15T10:24:46.505Z,144.50
2023-02-15T10:27:22.727Z,144.02
2023-02-15T10:30:06.712Z,151.48
2023-02-15T10:32:55.391Z,155.00
2023-02-15T10:35:28.413Z,148.35
2023-02-15T10:38:19.100Z,148.23
2023-02-15T10:41:17.897Z,147.80
2023-02-15T10:43:59.695Z,147.15
2023-02-15T10:46:43.463Z,162.68
2023-02-15T10:49:28.286Z,154.75
2023-02-15T10:52:15.481Z,181.95
2023-02-15T10:54:50.267Z,166.95
2023-02-15T10:57:40.134Z,179.30
2023-02-15T11:00:24.576Z,158.30
2023-02-15T11:03:19.262Z,115.32
2023-02-15T11:06:06.326Z,99.10
2023-02-15T11:08:39.498Z,102.45
2023-02-15T11:11:16.617Z,111.43
2023-02-15T11:13:51.354Z,126.30
2023-02-15T11:16:26.606Z,122.70
2023-02-15T11:19:08.306Z,123.93
2023-02-15T11:21:42.295Z,145.77
2023-02-15T11:24:16.882Z,133.20
2023-02-15T11:26:51.949Z,144.50
2023-02-15T11:29:29.672Z,152.50
2023-02-15T11:32:03.596Z,142.15
2023-02-15T11:34:46.304Z,160.30
2023-02-15T11:37:20.572Z,153.40
2023-02-15T11:39:52.801Z,151.48
2023-02-15T11:42:24.851Z,145.65
2023-02-15T11:45:06.442Z,149.25
2023-02-15T11:47:34.086Z,167.13
2023-02-15T11:50:03.706Z,154.40
2023-02-15T11:52:31.738Z,154.77
2023-02-15T11:54:59.968Z,141.18
2023-02-15T11:57:39.820Z,146.10
2023-02-15T12:00:18.970Z,130.77
2023-02-15T12:02:53.255Z,143.32
2023-02-15T12:05:26.319Z,137.98
2023-02-15T12:08:02.726Z,163.30
2023-02-15T12:10:36.978Z,166.57
2023-02-15T12:13:22.080Z,167.35
2023-02-15T12:15:54.710Z,155.75
2023-02-15T12:18:35.330Z,146.30
2023-02-15T12:21:15.374Z,151.35
2023-02-15T12:23:50.548Z,153.45
2023-02-15T12:26:30.110Z,151.02
2023-02-15T12:29:03.819Z,150.70
2023-02-15T12:31:36.697Z,137.57
2023-02-15T12:34:15.453Z,166.68
2023-02-15T12:36:55.946Z,144.23
2023-02-15T12:39:27.798Z,150.32
2023-02-15T12:41:58.008Z,139.05
2023-02-15T12:44:30.924Z,153.52
2023-02-15T12:47:05.639Z,136.75
2023-02-15T12:49:35.605Z,143.67
2023-02-15T12:52:09.559Z,153.80
2023-02-15T12:54:43.581Z,181.68
2023-02-15T12:57:31.776Z,165.73
2023-02-15T13:00:02.719Z,164.02
2023-02-15T13:02:36.281Z,164.30
2023-02-15T13:05:27.913Z,140.30
2023-02-15T13:08:01.239Z,152.43
2023-02-15T13:10:34.306Z,151.90
2023-02-15T13:13:04.625Z,137.43
2023-02-15T13:15:38.415Z,133.90
2023-02-15T13:18:14.259Z,134.93
2023-02-15T13:20:46.758Z,143.00
2023-02-15T13:23:30.494Z,154.75
2023-02-15T13:26:04.728Z,163.48
2023-02-15T13:28:45.480Z,155.88
2023-02-15T13:31:20.217Z,159.50
2023-02-15T13:33:56.687Z,174.05
2023-02-15T13:36:43.461Z,159.88
2023-02-15T13:39:38.712Z,156.85
2023-02-15T13:42:23.044Z,137.38
2023-02-15T13:44:54.385Z,159.32
2023-02-15T13:47:28.840Z,158.35
2023-02-15T13:50:06.137Z,143.18
2023-02-15T13:52:44.967Z,125.60
2023-02-15T13:55:28.879Z,120.05
2023-02-15T13:57:57.905Z,138.27
2023-02-15T14:00:29.186Z,163.38
2023-02-15T14:03:19.855Z,153.95
2023-02-15T14:06:07.140Z,161.13
2023-02-15T14:08:51.864Z,165.23
2023-02-15T14:11:37.599Z,145.23
2023-02-15T14:14:22.068Z,140.75
2023-02-15T14:17:07.136Z,153.43
2023-02-15T14:19:38.017Z,144.32
2023-02-15T14:22:17.676Z,128.65
2023-02-15T14:25:03.505Z,136.57
2023-02-15T14:27:45.937Z,137.15
2023-02-15T14:30:21.590Z,166.50
2023-02-15T14:32:56.597Z,151.82
2023-02-15T14:35:29.659Z,173.93
2023-02-15T14:38:00.302Z,174.35
2023-02-15T14:40:53.549Z,188.20
2023-02-15T14:43:44.600Z,168.63
2023-02-15T14:46:27.088Z,165.05
2023-02-15T14:48:59.352Z,171.18
2023-02-15T14:51:44.086Z,161.43
2023-02-15T14:54:33.888Z,135.48
2023-02-15T14:57:03.290Z,157.23
2023-02-15T14:59:58.031Z,168.75
2023-02-15T15:02:32.186Z,156.00
2023-02-15T15:05:04.241Z,159.38
2023-02-15T15:07:52.258Z,154.32
2023-02-15T15:10:21.898Z,150.38
2023-02-15T15:12:50.725Z,143.13
2023-02-15T15:15:38.911Z,127.78
2023-02-15T15:18:12.008Z,146.32
2023-02-15T15:20:51.266Z,159.75
2023-02-15T15:23:21.661Z,139.75
2023-02-15T15:25:50.996Z,157.63
2023-02-15T15:28:34.750Z,142.45
2023-02-15T15:31:22.751Z,147.32
2023-02-15T15:34:21.766Z,141.30
2023-02-15T15:37:20.681Z,148.63
2023-02-15T15:40:04.585Z,151.55
2023-02-15T15:42:53.480Z,147.15
2023-02-15T15:45:41.338Z,145.30
2023-02-15T15:48:40.218Z,142.05
2023-02-15T15:51:13.771Z,143.45
2023-02-15T15:53:47.065Z,132.43
2023-02-15T15:56:19.849Z,164.05
2023-02-15T15:58:56.970Z,152.00
2023-02-15T16:01:29.985Z,167.68
2023-02-15T16:04:01.837Z,152.45
2023-02-15T16:06:39.721Z,165.27
2023-02-15T16:09:21.581Z,147.50
2023-02-15T16:11:55.068Z,129.48
2023-02-15T16:14:29.252Z,149.63
2023-02-15T16:17:02.755Z,165.85
2023-02-15T16:19:37.127Z,153.20
2023-02-15T16:22:08.719Z,153.00
2023-02-15T16:24:54.738Z,140.63
2023-02-15T16:27:37.249Z,154.63
2023-02-15T16:30:25.598Z,169.52
2023-02-15T16:32:57.449Z,157.70
2023-02-15T16:35:25.997Z,167.57
2023-02-15T16:37:55.380Z,170.45
2023-02-15T16:40:37.358Z,176.38
2023-02-15T16:43:09.895Z,170.32
2023-02-15T16:45:40.793Z,183.57
2023-02-15T16:48:16.511Z,174.25
2023-02-15T16:50:53.188Z,170.65
2023-02-15T16:53:27.108Z,167.27
2023-02-15T16:56:03.506Z,151.50
2023-02-15T16:58:44.715Z,154.52
2023-02-15T17:01:17.128Z,143.82
2023-02-15T17:03:50.197Z,167.25
2023-02-15T17:06:28.310Z,148.93
2023-02-15T17:09:06.180Z,169.00
2023-02-15T17:11:40.082Z,150.50
2023-02-15T17:14:10.467Z,150.40
2023-02-15T17:16:55.624Z,143.90
2023-02-15T17:19:28.117Z,160.88
2023-02-15T17:22:00.715Z,151.48
2023-02-15T17:24:40.932Z,165.23
2023-02-15T17:27:18.760Z,153.70
2023-02-15T17:29:53.955Z,165.45
2023-02-15T17:32:26.765Z,159.00
2023-02-15T17:35:01.557Z,152.68
2023-02-15T17:37:48.777Z,145.20
2023-02-15T17:40:30.524Z,140.00
2023-02-15T17:42:58.850Z,153.05
2023-02-15T17:45:34.222Z,149.57
2023-02-15T17:48:06.842Z,159.65
2023-02-15T17:50:34.410Z,139.60
2023-02-15T17:53:02.680Z,149.60
2023-02-15T17:55:45.809Z,141.43
2023-02-15T17:58:16.046Z,171.20
2023-02-15T18:01:02.314Z,160.35
2023-02-15T18:03:55.348Z,155.45
2023-02-15T18:06:42.725Z,163.38
2023-02-15T18:09:30.363Z,153.30
2023-02-15T18:12:02.765Z,153.05
2023-02-15T18:14:32.008Z,140.35
2023-02-15T18:17:00.787Z,165.07
2023-02-15T18:19:29.628Z,162.00
2023-02-15T18:21:59.776Z,135.63
2023-02-15T18:24:28.318Z,153.88
2023-02-15T18:26:56.860Z,156.05
2023-02-15T18:29:25.486Z,143.68
2023-02-15T18:31:55.967Z,153.02
2023-02-15T18:34:30.277Z,138.80
2023-02-15T18:37:01.917Z,140.00
2023-02-15T18:39:40.213Z,143.70
2023-02-15T18:42:21.492Z,156.80
2023-02-15T18:44:50.599Z,154.10
2023-02-15T18:47:19.248Z,166.93
2023-02-15T18:49:46.500Z,159.20
2023-02-15T18:52:18.552Z,133.38
2023-02-15T18:54:46.959Z,150.68
2023-02-15T18:57:16.645Z,156.55
2023-02-15T18:59:44.438Z,152.85
2023-02-15T19:02:17.187Z,150.10
2023-02-15T19:04:45.502Z,148.35
2023-02-15T19:07:20.267Z,155.77
2023-02-15T19:09:52.142Z,160.25
2023-02-15T19:12:19.747Z,174.98
2023-02-15T19:14:47.209Z,179.70
2023-02-15T19:17:18.934Z,180.80
2023-02-15T19:19:46.924Z,175.98
2023-02-15T19:22:16.242Z,165.05
2023-02-15T19:24:46.979Z,165.75
2023-02-15T19:27:26.157Z,144.63
2023-02-15T19:29:56.728Z,163.07
2023-02-15T19:32:24.790Z,158.63
2023-02-15T19:34:52.061Z,170.65
2023-02-15T19:37:26.389Z,181.80
2023-02-15T19:39:53.941Z,157.57
2023-02-15T19:42:24.200Z,157.20
2023-02-15T19:44:52.976Z,157.65
2023-02-15T19:47:22.349Z,140.57
2023-02-15T19:49:50.785Z,166.63
2023-02-15T19:52:23.193Z,171.70
2023-02-15T19:54:50.505Z,162.18
2023-02-15T19:57:19.230Z,182.95
2023-02-15T19:59:46.989Z,169.35
2023-02-15T20:02:19.161Z,164.40
2023-02-15T20:04:46.607Z,174.20
2023-02-15T20:07:31.064Z,140.85
2023-02-15T20:10:00.285Z,154.32
2023-02-15T20:12:30.756Z,157.20
2023-02-15T20:15:00.418Z,160.05
2023-02-15T20:17:28.258Z,159.05
2023-02-15T20:19:57.076Z,157.57
2023-02-15T20:22:27.882Z,177.15
2023-02-15T20:24:57.928Z,176.32
2023-02-15T20:27:27.269Z,162.80
2023-02-15T20:29:56.952Z,158.73
2023-02-15T20:32:25.487Z,135.85
2023-02-15T20:34:53.397Z,163.23
2023-02-15T20:37:34.159Z,138.80
2023-02-15T20:40:03.883Z,155.98
2023-02-15T20:42:31.938Z,157.10
2023-02-15T20:45:00.305Z,160.75
2023-02-15T20:47:29.654Z,164.52
2023-02-15T20:50:00.007Z,158.95
2023-02-15T20:52:29.402Z,171.93
2023-02-15T20:54:59.746Z,160.27
2023-02-15T20:57:28.877Z,152.13
2023-02-15T20:59:57.936Z,156.30
2023-02-15T21:02:26.872Z,153.52
2023-02-15T21:04:55.666Z,151.77
2023-02-15T21:07:24.022Z,157.65
2023-02-15T21:09:54.469Z,163.43
2023-02-15T21:12:23.733Z,148.88
2023-02-15T21:14:52.391Z,156.23
2023-02-15T21:17:19.319Z,155.43
2023-02-15T21:19:47.760Z,152.43
2023-02-15T21:22:16.665Z,163.50
2023-02-15T21:24:51.577Z,143.57
2023-02-15T21:27:19.999Z,180.10
2023-02-15T21:29:47.238Z,151.88
2023-02-15T21:32:14.951Z,159.45
2023-02-15T21:34:42.438Z,167.40
2023-02-15T21:37:28.412Z,156.32
2023-02-15T21:39:57.259Z,168.55
2023-02-15T21:42:41.578Z,157.23
2023-02-15T21:45:34.614Z,145.13
2023-02-15T21:48:03.375Z,148.07
2023-02-15T21:50:46.321Z,162.15
2023-02-15T21:53:22.559Z,175.73
2023-02-15T21:55:51.487Z,171.50
2023-02-15T21:58:21.962Z,177.20
2023-02-15T22:00:51.680Z,164.05
2023-02-15T22:03:20.454Z,166.68
2023-02-15T22:05:48.416Z,167.32
2023-02-15T22:08:20.222Z,170.82
2023-02-15T22:10:48.345Z,151.13
2023-02-15T22:13:23.557Z,132.85
2023-02-15T22:15:51.403Z,116.13
2023-02-15T22:18:24.013Z,129.65
2023-02-15T22:20:51.900Z,123.05
2023-02-15T22:23:24.674Z,118.88
2023-02-15T22:25:55.290Z,153.48
2023-02-15T22:28:29.461Z,128.00
2023-02-15T22:30:59.540Z,132.63
2023-02-15T22:33:32.334Z,129.90
2023-02-15T22:36:01.811Z,137.40
2023-02-15T22:38:30.798Z,116.10
2023-02-15T22:41:04.364Z,116.22
2023-02-15T22:43:38.981Z,130.60
2023-02-15T22:46:14.804Z,125.90
2023-02-15T22:48:43.591Z,129.07
2023-02-15T22:51:14.887Z,128.75
2023-02-15T22:53:43.059Z,140.10
2023-02-15T22:56:20.243Z,123.07
2023-02-15T22:58:50.450Z,117.45
2023-02-15T23:01:30.557Z,129.57
2023-02-15T23:03:58.602Z,126.63
2023-02-15T23:06:28.997Z,111.57
2023-02-15T23:08:57.216Z,110.82
2023-02-15T23:11:25.295Z,113.68
2023-02-15T23:13:52.329Z,112.45
2023-02-15T23:16:21.948Z,129.82
2023-02-15T23:18:49.459Z,113.22
2023-02-15T23:21:33.694Z,119.90
2023-02-15T23:24:23.062Z,96.15
2023-02-15T23:26:52.049Z,106.28
2023-02-15T23:29:23.790Z,101.78
2023-02-15T23:31:53.613Z,103.43
2023-02-15T23:34:30.801Z,102.05
2023-02-15T23:36:59.558Z,107.13
2023-02-15T23:39:44.140Z,115.10
2023-02-15T23:42:31.894Z,127.28
2023-02-15T23:45:00.636Z,114.20
2023-02-15T23:47:49.411Z,118.50
2023-02-15T23:50:21.809Z,114.80
2023-02-15T23:52:50.854Z,102.20
2023-02-15T23:55:19.637Z,111.00
2023-02-15T23:57:48.126Z,110.00
